createdAt,value
2023-04-17T00:00:36.239Z,100225.00
2023-04-17T00:01:17.830Z,100226.31
2023-04-17T00:02:00.526Z,100229.44
2023-04-17T00:02:42.309Z,100229.44
2023-04-17T00:03:24.028Z,100231.41
2023-04-17T00:04:10.674Z,100224.31
2023-04-17T00:04:54.181Z,100205.28
2023-04-17T00:05:35.851Z,100234.88
2023-04-17T00:06:18.986Z,100223.47
2023-04-17T00:07:03.415Z,100229.94
2023-04-17T00:07:46.489Z,100222.47
2023-04-17T00:08:28.136Z,100228.59
2023-04-17T00:09:10.930Z,100225.97
2023-04-17T00:09:52.676Z,100224.97
2023-04-17T00:10:34.234Z,100172.56
2023-04-17T00:11:17.993Z,100213.06
2023-04-17T00:12:00.992Z,100177.84
2023-04-17T00:12:42.639Z,100225.50
2023-04-17T00:13:24.266Z,100229.28
2023-04-17T00:14:06.208Z,100219.19
2023-04-17T00:14:48.185Z,100211.75
2023-04-17T00:15:29.811Z,100220.84
2023-04-17T00:16:13.641Z,100202.66
2023-04-17T00:16:55.476Z,100221.66
2023-04-17T00:17:37.403Z,100228.78
2023-04-17T00:18:19.061Z,100207.94
2023-04-17T00:19:00.789Z,100222.81
2023-04-17T00:19:42.413Z,100190.75
2023-04-17T00:20:23.979Z,100217.69
2023-04-17T00:21:06.049Z,100209.59
2023-04-17T00:21:47.788Z,100210.09
2023-04-17T00:22:29.356Z,100161.50
2023-04-17T00:23:11.055Z,100216.56
2023-04-17T00:23:52.666Z,100223.81
2023-04-17T00:24:34.298Z,100230.91
2023-04-17T00:25:15.961Z,100226.28
2023-04-17T00:25:57.695Z,100220.81
2023-04-17T00:26:39.352Z,100227.59
2023-04-17T00:27:21.018Z,100227.78
2023-04-17T00:28:02.605Z,100194.88
2023-04-17T00:28:44.191Z,100219.00
2023-04-17T00:29:25.827Z,100217.34
2023-04-17T00:30:08.143Z,100210.88
2023-04-17T00:30:49.707Z,100231.56
2023-04-17T00:31:31.393Z,100222.97
2023-04-17T00:32:13.225Z,100215.03
2023-04-17T00:32:54.971Z,100210.06
2023-04-17T00:33:36.681Z,100218.16
2023-04-17T00:34:18.625Z,100225.59
2023-04-17T00:35:01.420Z,100223.59
2023-04-17T00:35:43.043Z,100218.81
2023-04-17T00:36:25.168Z,100209.53
2023-04-17T00:37:07.524Z,100208.03
2023-04-17T00:37:49.254Z,100208.66
2023-04-17T00:38:30.924Z,100221.91
2023-04-17T00:39:12.830Z,100208.31
2023-04-17T00:39:54.760Z,100177.56
2023-04-17T00:40:36.505Z,100217.41
2023-04-17T00:41:19.338Z,100227.00
2023-04-17T00:42:01.553Z,100210.00
2023-04-17T00:42:45.194Z,100220.88
2023-04-17T00:43:26.834Z,100219.91
2023-04-17T00:44:08.695Z,100219.06
2023-04-17T00:44:50.314Z,100224.19
2023-04-17T00:45:32.442Z,100197.25
2023-04-17T00:46:15.112Z,100223.06
2023-04-17T00:46:57.005Z,100217.94
2023-04-17T00:47:39.080Z,100224.56
2023-04-17T00:48:23.977Z,100208.50
2023-04-17T00:49:05.671Z,100217.94
2023-04-17T00:49:47.330Z,100218.97
2023-04-17T00:50:29.136Z,100218.63
2023-04-17T00:51:11.229Z,100216.66
2023-04-17T00:51:53.737Z,100217.16
2023-04-17T00:52:35.838Z,100217.16
2023-04-17T00:53:17.646Z,100182.28
2023-04-17T00:54:00.326Z,100212.84
2023-04-17T00:54:42.375Z,100194.31
2023-04-17T00:55:24.226Z,100208.25
2023-04-17T00:56:06.723Z,100202.28
2023-04-17T00:56:49.758Z,100220.63
2023-04-17T00:57:31.424Z,100214.69
2023-04-17T00:58:13.627Z,100215.03
2023-04-17T00:58:57.040Z,100207.06
2023-04-17T00:59:39.205Z,100222.13
2023-04-17T01:00:21.200Z,100219.97
2023-04-17T01:01:04.410Z,100216.84
2023-04-17T01:01:46.186Z,100218.66
2023-04-17T01:02:28.325Z,100218.66
2023-04-17T01:03:10.761Z,100191.19
2023-04-17T01:03:53.650Z,100200.13
2023-04-17T01:04:35.441Z,100171.66
2023-04-17T01:05:17.589Z,100214.16
2023-04-17T01:05:59.512Z,100219.97
2023-04-17T01:06:41.901Z,100216.81
2023-04-17T01:07:24.325Z,100215.34
2023-04-17T01:08:05.967Z,100214.66
2023-04-17T01:08:47.743Z,100220.09
2023-04-17T01:09:29.355Z,100211.66
2023-04-17T01:10:11.195Z,100171.31
2023-04-17T01:10:52.782Z,100214.31
2023-04-17T01:11:34.688Z,100195.81
2023-04-17T01:12:19.924Z,100209.69
2023-04-17T01:13:07.996Z,100211.19
2023-04-17T01:13:51.644Z,100209.84
2023-04-17T01:14:33.255Z,100219.44
2023-04-17T01:15:15.392Z,100216.66
2023-04-17T01:15:57.099Z,100214.69
2023-04-17T01:16:40.263Z,100218.97
2023-04-17T01:17:22.805Z,100222.59
2023-04-17T01:18:06.475Z,100210.22
2023-04-17T01:18:48.320Z,100176.66
2023-04-17T01:19:30.777Z,100213.69
2023-04-17T01:20:13.436Z,100210.06
2023-04-17T01:20:55.070Z,100210.06
2023-04-17T01:21:36.879Z,100215.19
2023-04-17T01:22:22.357Z,100216.03
2023-04-17T01:23:08.630Z,100218.66
2023-04-17T01:23:54.571Z,100215.19
2023-04-17T01:24:40.422Z,100215.34
2023-04-17T01:25:22.419Z,100166.41
2023-04-17T01:26:04.115Z,100212.84
2023-04-17T01:26:45.991Z,100215.50
2023-04-17T01:27:28.502Z,100212.03
2023-04-17T01:28:10.316Z,100205.44
2023-04-17T01:28:59.861Z,100207.94
2023-04-17T01:29:43.247Z,100210.41
2023-04-17T01:30:24.998Z,100204.28
2023-04-17T01:31:16.319Z,100180.31
2023-04-17T01:31:58.251Z,100207.09
2023-04-17T01:32:40.089Z,100196.84
2023-04-17T01:33:21.696Z,100212.38
2023-04-17T01:34:03.335Z,100211.72
2023-04-17T01:34:45.144Z,100210.69
2023-04-17T01:35:26.770Z,100213.00
2023-04-17T01:36:09.270Z,100215.28
2023-04-17T01:36:51.172Z,100211.97
2023-04-17T01:37:32.911Z,100208.19
2023-04-17T01:38:14.478Z,100207.88
2023-04-17T01:38:56.468Z,100216.63
2023-04-17T01:39:38.522Z,100184.50
2023-04-17T01:40:20.440Z,100220.25
2023-04-17T01:41:09.519Z,100196.59
2023-04-17T01:41:51.512Z,100216.44
2023-04-17T01:42:34.301Z,100199.22
2023-04-17T01:43:15.991Z,100209.31
2023-04-17T01:43:57.614Z,100215.44
2023-04-17T01:44:39.241Z,100211.97
2023-04-17T01:45:21.403Z,100218.06
2023-04-17T01:46:03.105Z,100199.19
2023-04-17T01:46:44.801Z,100200.69
2023-04-17T01:47:26.653Z,100212.28
2023-04-17T01:48:08.293Z,100213.41
2023-04-17T01:48:50.149Z,100210.91
2023-04-17T01:49:31.996Z,100206.63
2023-04-17T01:50:13.788Z,100208.94
2023-04-17T01:50:55.702Z,100180.28
2023-04-17T01:51:37.294Z,100213.91
2023-04-17T01:52:18.891Z,100216.56
2023-04-17T01:53:00.817Z,100212.25
2023-04-17T01:53:42.663Z,100175.78
2023-04-17T01:54:24.969Z,100200.94
2023-04-17T01:55:07.167Z,100207.88
2023-04-17T01:55:48.818Z,100215.34
2023-04-17T01:56:30.848Z,100213.00
2023-04-17T01:57:12.510Z,100197.59
2023-04-17T01:57:55.328Z,100121.19
2023-04-17T01:58:37.686Z,100195.59
2023-04-17T01:59:19.352Z,100194.63
2023-04-17T02:00:00.967Z,100212.16
2023-04-17T02:00:45.633Z,100199.94
2023-04-17T02:01:27.373Z,100217.13
2023-04-17T02:02:09.211Z,100199.56
2023-04-17T02:02:51.031Z,100214.63
2023-04-17T02:03:32.916Z,100219.09
2023-04-17T02:04:14.878Z,100212.97
2023-04-17T02:04:56.606Z,100129.41
2023-04-17T02:05:38.160Z,100218.41
2023-04-17T02:06:20.307Z,100212.28
2023-04-17T02:07:05.280Z,100216.75
2023-04-17T02:07:50.296Z,100218.56
2023-04-17T02:08:31.897Z,100216.75
2023-04-17T02:09:13.800Z,100208.97
2023-04-17T02:09:55.440Z,100207.00
2023-04-17T02:10:37.010Z,100218.03
2023-04-17T02:11:18.598Z,100213.59
2023-04-17T02:12:00.277Z,100215.59
2023-04-17T02:12:41.927Z,100213.41
2023-04-17T02:13:23.609Z,100213.72
2023-04-17T02:14:05.445Z,100205.53
2023-04-17T02:14:47.047Z,100208.38
2023-04-17T02:15:28.737Z,100189.63
2023-04-17T02:16:12.433Z,100205.66
2023-04-17T02:16:56.577Z,100207.97
2023-04-17T02:17:38.285Z,100210.25
2023-04-17T02:18:20.062Z,100202.50
2023-04-17T02:19:01.713Z,100194.53
2023-04-17T02:19:45.813Z,100202.31
2023-04-17T02:20:27.430Z,100211.88
2023-04-17T02:21:09.794Z,100205.88
2023-04-17T02:21:51.418Z,100206.56
2023-04-17T02:22:33.128Z,100212.81
2023-04-17T02:23:14.853Z,100211.47
2023-04-17T02:23:56.445Z,100215.22
2023-04-17T02:24:38.064Z,100202.97
2023-04-17T02:25:19.737Z,100211.03
2023-04-17T02:26:03.436Z,100207.72
2023-04-17T02:26:45.052Z,100162.03
2023-04-17T02:27:27.559Z,100196.44
2023-04-17T02:28:09.134Z,100210.59
2023-04-17T02:28:50.723Z,100220.75
2023-04-17T02:29:32.400Z,100224.91
2023-04-17T02:30:14.104Z,100228.53
2023-04-17T02:30:55.812Z,100211.97
2023-04-17T02:31:39.264Z,100227.84
2023-04-17T02:32:20.975Z,100225.50
2023-04-17T02:33:02.739Z,100211.28
2023-04-17T02:33:45.866Z,100218.56
2023-04-17T02:34:27.648Z,100146.41
2023-04-17T02:35:10.353Z,100220.59
2023-04-17T02:35:52.262Z,100228.53
2023-04-17T02:36:39.042Z,100227.53
2023-04-17T02:37:21.031Z,100227.38
2023-04-17T02:38:02.939Z,100229.06
2023-04-17T02:38:44.630Z,100233.34
2023-04-17T02:39:28.148Z,100218.50
2023-04-17T02:40:14.362Z,100168.47
2023-04-17T02:40:57.063Z,100222.78
2023-04-17T02:41:38.768Z,100231.75
2023-04-17T02:42:20.983Z,100222.00
2023-04-17T02:43:02.713Z,100210.09
2023-04-17T02:43:45.153Z,100219.53
2023-04-17T02:44:26.796Z,100227.34
2023-04-17T02:45:10.976Z,100231.47
2023-04-17T02:45:52.676Z,100212.00
2023-04-17T02:46:34.541Z,100219.28
2023-04-17T02:47:16.399Z,100228.38
2023-04-17T02:47:58.184Z,100227.56
2023-04-17T02:48:39.960Z,100230.50
2023-04-17T02:49:21.767Z,100203.53
2023-04-17T02:50:05.519Z,100192.81
2023-04-17T02:50:52.712Z,100213.16
2023-04-17T02:51:35.392Z,100217.47
2023-04-17T02:52:18.505Z,100215.66
2023-04-17T02:53:00.320Z,100223.94
2023-04-17T02:53:44.860Z,100160.88
2023-04-17T02:54:26.424Z,100220.47
2023-04-17T02:55:09.603Z,100193.97
2023-04-17T02:55:52.376Z,100223.78
2023-04-17T02:56:38.010Z,100216.84
2023-04-17T02:57:19.677Z,100214.22
2023-04-17T02:58:01.861Z,100212.25
2023-04-17T02:58:46.225Z,100167.72
2023-04-17T02:59:30.244Z,100216.38
2023-04-17T03:00:15.277Z,100219.84
2023-04-17T03:01:02.464Z,100213.88
2023-04-17T03:01:46.383Z,100215.38
2023-04-17T03:02:30.583Z,100212.06
2023-04-17T03:03:12.530Z,100208.78
2023-04-17T03:03:54.286Z,100210.59
2023-04-17T03:04:38.713Z,100213.22
2023-04-17T03:05:23.132Z,100214.38
2023-04-17T03:06:06.873Z,100218.81
2023-04-17T03:06:48.509Z,100218.00
2023-04-17T03:07:30.181Z,100211.72
2023-04-17T03:08:11.799Z,100218.81
2023-04-17T03:08:59.425Z,100197.63
2023-04-17T03:09:42.678Z,100211.06
2023-04-17T03:10:24.427Z,100171.31
2023-04-17T03:11:06.603Z,100214.66
2023-04-17T03:11:48.968Z,100215.50
2023-04-17T03:12:30.568Z,100205.56
2023-04-17T03:13:12.408Z,100220.09
2023-04-17T03:13:54.069Z,100222.88
2023-04-17T03:14:37.157Z,100206.03
2023-04-17T03:15:18.947Z,100208.28
2023-04-17T03:16:01.526Z,100211.47
2023-04-17T03:16:43.421Z,100190.22
2023-04-17T03:17:25.226Z,100222.84
2023-04-17T03:18:07.363Z,100217.56
2023-04-17T03:18:50.290Z,100222.00
2023-04-17T03:19:31.960Z,100187.94
2023-04-17T03:20:15.759Z,100197.03
2023-04-17T03:20:58.087Z,100203.66
2023-04-17T03:21:39.775Z,100196.88
2023-04-17T03:22:21.619Z,100215.22
2023-04-17T03:23:03.624Z,100210.44
2023-04-17T03:23:46.616Z,100214.41
2023-04-17T03:24:29.123Z,100216.88
2023-04-17T03:25:11.108Z,100217.56
2023-04-17T03:25:59.297Z,100220.22
2023-04-17T03:26:41.557Z,100221.03
2023-04-17T03:27:30.844Z,100219.53
2023-04-17T03:28:12.401Z,100206.59
2023-04-17T03:28:53.989Z,100213.22
2023-04-17T03:29:36.182Z,100209.53
2023-04-17T03:30:17.886Z,100194.63
2023-04-17T03:31:02.897Z,100223.28
2023-04-17T03:31:49.185Z,100217.34
2023-04-17T03:32:31.338Z,100214.69
2023-04-17T03:33:13.073Z,100209.06
2023-04-17T03:33:54.669Z,100225.94
2023-04-17T03:34:37.170Z,100164.91
2023-04-17T03:35:18.884Z,100216.75
2023-04-17T03:36:00.525Z,100210.78
2023-04-17T03:36:44.789Z,100221.56
2023-04-17T03:37:26.425Z,100199.56
2023-04-17T03:38:08.693Z,100214.16
2023-04-17T03:38:50.357Z,100217.47
2023-04-17T03:39:32.008Z,100206.03
2023-04-17T03:40:16.257Z,100221.31
2023-04-17T03:40:59.698Z,100225.44
2023-04-17T03:41:41.768Z,100224.28
2023-04-17T03:42:24.422Z,100206.44
2023-04-17T03:43:06.570Z,100189.41
2023-04-17T03:43:48.195Z,100200.19
2023-04-17T03:44:29.843Z,100223.84
2023-04-17T03:45:11.697Z,100205.31
2023-04-17T03:45:53.659Z,100221.56
2023-04-17T03:46:36.368Z,100218.59
2023-04-17T03:47:18.175Z,100196.75
2023-04-17T03:48:01.102Z,100191.47
2023-04-17T03:48:43.327Z,100207.53
2023-04-17T03:49:25.214Z,100209.84
2023-04-17T03:50:07.503Z,100220.22
2023-04-17T03:50:54.216Z,100226.06
2023-04-17T03:51:36.277Z,100224.09
2023-04-17T03:52:25.636Z,100228.22
2023-04-17T03:53:11.288Z,100202.91
2023-04-17T03:53:53.780Z,100220.97
2023-04-17T03:54:36.762Z,100159.06
2023-04-17T03:55:20.399Z,100224.44
2023-04-17T03:56:03.780Z,100222.63
2023-04-17T03:56:50.138Z,100223.75
2023-04-17T03:57:32.861Z,100204.72
2023-04-17T03:58:14.553Z,100222.63
2023-04-17T03:58:56.186Z,100212.03
2023-04-17T03:59:38.011Z,100224.56
2023-04-17T04:00:21.739Z,100224.56
2023-04-17T04:01:10.872Z,100229.38
2023-04-17T04:01:57.454Z,100222.94
2023-04-17T04:02:40.069Z,100227.19
2023-04-17T04:03:23.079Z,100224.09
2023-04-17T04:04:05.175Z,100228.53
2023-04-17T04:04:48.245Z,100095.81
2023-04-17T04:05:30.291Z,100227.88
2023-04-17T04:06:12.750Z,100199.41
2023-04-17T04:06:57.464Z,100216.63
2023-04-17T04:07:41.628Z,100213.97
2023-04-17T04:08:23.844Z,100224.75
2023-04-17T04:09:07.341Z,100224.75
2023-04-17T04:09:48.950Z,100223.75
2023-04-17T04:10:32.511Z,100221.44
2023-04-17T04:11:14.380Z,100220.78
2023-04-17T04:11:57.313Z,100229.22
2023-04-17T04:12:38.988Z,100213.97
2023-04-17T04:13:20.887Z,100207.53
2023-04-17T04:14:10.495Z,100211.16
2023-04-17T04:14:53.016Z,100229.53
2023-04-17T04:15:34.659Z,100217.09
2023-04-17T04:16:19.710Z,100173.09
2023-04-17T04:17:01.372Z,100234.50
2023-04-17T04:17:43.047Z,100172.91
2023-04-17T04:18:25.197Z,100212.44
2023-04-17T04:19:07.462Z,100228.22
2023-04-17T04:19:49.071Z,100220.47
2023-04-17T04:20:31.360Z,100233.31
2023-04-17T04:21:25.521Z,100195.94
2023-04-17T04:22:08.746Z,100220.31
2023-04-17T04:22:59.231Z,100228.72
2023-04-17T04:23:42.832Z,100223.75
2023-04-17T04:24:26.324Z,100232.72
2023-04-17T04:25:08.463Z,100226.44
2023-04-17T04:26:02.085Z,100234.38
2023-04-17T04:26:52.586Z,100234.22
2023-04-17T04:27:34.150Z,100233.25
2023-04-17T04:28:17.741Z,100231.44
2023-04-17T04:29:00.366Z,100233.88
2023-04-17T04:29:48.780Z,100234.56
2023-04-17T04:30:35.843Z,100235.38
2023-04-17T04:31:25.579Z,100238.69
2023-04-17T04:32:11.574Z,100226.97
2023-04-17T04:32:57.089Z,100210.63
2023-04-17T04:33:38.764Z,100235.09
2023-04-17T04:34:21.601Z,100229.69
2023-04-17T04:35:04.392Z,100242.78
2023-04-17T04:35:51.315Z,100233.91
2023-04-17T04:36:36.358Z,100226.31
2023-04-17T04:37:35.948Z,100218.75
2023-04-17T04:38:29.867Z,100229.69
2023-04-17T04:39:17.742Z,100235.19
2023-04-17T04:40:02.411Z,100137.69
2023-04-17T04:40:52.739Z,100242.97
2023-04-17T04:41:34.623Z,100188.19
2023-04-17T04:42:22.377Z,100242.59
2023-04-17T04:43:21.644Z,100235.34
2023-04-17T04:44:05.639Z,100241.47
2023-04-17T04:44:50.053Z,100236.19
2023-04-17T04:45:33.492Z,100242.66
2023-04-17T04:46:16.692Z,100205.25
2023-04-17T04:47:01.104Z,100241.81
2023-04-17T04:47:42.832Z,100242.66
2023-04-17T04:48:24.639Z,100236.38
2023-04-17T04:49:06.871Z,100212.84
2023-04-17T04:49:48.895Z,100246.78
2023-04-17T04:50:35.072Z,100248.28
2023-04-17T04:51:18.852Z,100246.47
2023-04-17T04:52:01.034Z,100231.25
2023-04-17T04:52:47.357Z,100234.25
2023-04-17T04:53:41.500Z,100235.22
2023-04-17T04:54:23.279Z,100243.50
2023-04-17T04:55:10.064Z,100242.50
2023-04-17T04:55:59.274Z,100237.22
2023-04-17T04:56:44.903Z,100248.28
2023-04-17T04:57:28.213Z,100169.94
2023-04-17T04:58:13.698Z,100246.66
2023-04-17T04:58:56.732Z,100229.28
2023-04-17T04:59:39.068Z,100241.19
2023-04-17T05:00:47.205Z,100234.41
2023-04-17T05:01:35.929Z,100238.53
2023-04-17T05:02:17.845Z,100219.53
2023-04-17T05:02:59.697Z,100246.63
2023-04-17T05:03:45.134Z,100240.19
2023-04-17T05:04:30.744Z,100234.06
2023-04-17T05:05:15.232Z,100234.25
2023-04-17T05:05:57.007Z,100248.47
2023-04-17T05:06:42.460Z,100246.47
2023-04-17T05:07:24.255Z,100247.63
2023-04-17T05:08:06.123Z,100253.25
2023-04-17T05:08:49.966Z,100246.66
2023-04-17T05:09:32.376Z,100241.84
2023-04-17T05:10:14.116Z,100192.22
2023-04-17T05:11:01.342Z,100244.81
2023-04-17T05:11:42.956Z,100232.09
2023-04-17T05:12:24.659Z,100245.81
2023-04-17T05:13:06.277Z,100243.19
2023-04-17T05:13:47.900Z,100246.50
2023-04-17T05:14:39.883Z,100246.13
2023-04-17T05:15:23.370Z,100222.66
2023-04-17T05:16:05.354Z,100249.94
2023-04-17T05:16:47.133Z,100240.53
2023-04-17T05:17:29.037Z,100243.00
2023-04-17T05:18:10.807Z,100249.78
2023-04-17T05:18:53.238Z,100245.16
2023-04-17T05:19:46.629Z,100241.69
2023-04-17T05:20:28.784Z,100215.38
2023-04-17T05:21:13.833Z,100225.31
2023-04-17T05:21:55.545Z,100242.34
2023-04-17T05:22:38.724Z,100246.81
2023-04-17T05:23:24.494Z,100193.72
2023-04-17T05:24:06.754Z,100249.47
2023-04-17T05:24:48.475Z,100236.56
2023-04-17T05:25:31.499Z,100246.81
2023-04-17T05:26:15.077Z,100248.31
2023-04-17T05:26:57.132Z,100249.13
2023-04-17T05:27:39.021Z,100237.38
2023-04-17T05:28:21.013Z,100241.69
2023-04-17T05:29:05.399Z,100254.75
2023-04-17T05:29:48.764Z,100259.88
2023-04-17T05:30:30.950Z,100244.97
2023-04-17T05:31:23.830Z,100235.72
2023-04-17T05:32:06.010Z,100226.94
2023-04-17T05:33:06.579Z,100251.59
2023-04-17T05:34:02.153Z,100254.06
2023-04-17T05:34:43.940Z,100241.19
2023-04-17T05:35:25.745Z,100256.88
2023-04-17T05:36:08.405Z,100261.34
2023-04-17T05:36:53.568Z,100260.19
2023-04-17T05:37:35.209Z,100251.44
2023-04-17T05:38:17.478Z,100254.91
2023-04-17T05:38:59.091Z,100233.75
2023-04-17T05:39:40.867Z,100259.38
2023-04-17T05:40:23.337Z,100257.88
2023-04-17T05:41:07.464Z,100255.06
2023-04-17T05:41:49.142Z,100245.13
2023-04-17T05:42:30.994Z,100260.84
2023-04-17T05:43:12.833Z,100251.75
2023-04-17T05:43:55.114Z,100253.72
2023-04-17T05:44:36.835Z,100192.56
2023-04-17T05:45:18.531Z,100249.44
2023-04-17T05:46:00.249Z,100254.06
2023-04-17T05:46:41.881Z,100253.25
2023-04-17T05:47:23.512Z,100231.25
2023-04-17T05:48:05.483Z,100245.31
2023-04-17T05:48:47.134Z,100246.81
2023-04-17T05:49:28.975Z,100251.94
2023-04-17T05:50:11.943Z,100252.25
2023-04-17T05:50:53.682Z,100262.34
2023-04-17T05:51:35.281Z,100253.41
2023-04-17T05:52:17.509Z,100263.00
2023-04-17T05:52:59.373Z,100271.09
2023-04-17T05:53:44.854Z,100256.69
2023-04-17T05:54:27.949Z,100263.31
2023-04-17T05:55:10.148Z,100267.31
2023-04-17T05:55:52.816Z,100244.97
2023-04-17T05:56:34.553Z,100219.34
2023-04-17T05:57:17.143Z,100276.91
2023-04-17T05:57:59.001Z,100275.25
2023-04-17T05:58:41.786Z,100272.75
2023-04-17T05:59:23.583Z,100269.63
2023-04-17T06:00:12.930Z,100263.34
2023-04-17T06:00:58.030Z,100262.69
2023-04-17T06:01:41.464Z,100265.63
2023-04-17T06:02:26.560Z,100238.53
2023-04-17T06:03:09.783Z,100260.31
2023-04-17T06:03:54.568Z,100264.28
2023-04-17T06:04:41.578Z,100247.09
2023-04-17T06:05:23.903Z,100253.03
2023-04-17T06:06:05.897Z,100254.50
2023-04-17T06:06:47.725Z,100249.03
2023-04-17T06:07:30.210Z,100203.41
2023-04-17T06:08:11.829Z,100243.41
2023-04-17T06:08:54.462Z,100253.69
2023-04-17T06:09:38.271Z,100254.34
2023-04-17T06:10:20.198Z,100226.53
2023-04-17T06:11:01.868Z,100249.38
2023-04-17T06:11:43.729Z,100251.00
2023-04-17T06:12:25.523Z,100241.09
2023-04-17T06:13:08.621Z,100200.41
2023-04-17T06:13:52.068Z,100255.13
2023-04-17T06:14:34.001Z,100247.84
2023-04-17T06:15:19.180Z,100251.81
2023-04-17T06:16:00.892Z,100239.72
2023-04-17T06:16:42.589Z,100247.19
2023-04-17T06:17:24.330Z,100254.75
2023-04-17T06:18:06.441Z,100256.06
2023-04-17T06:18:48.943Z,100239.53
2023-04-17T06:19:30.634Z,100251.94
2023-04-17T06:20:12.443Z,100243.97
2023-04-17T06:20:54.478Z,100244.97
2023-04-17T06:21:36.124Z,100247.25
2023-04-17T06:22:17.760Z,100247.63
2023-04-17T06:23:00.729Z,100255.03
2023-04-17T06:23:42.402Z,100252.56
2023-04-17T06:24:24.006Z,100250.44
2023-04-17T06:25:09.251Z,100243.69
2023-04-17T06:25:51.209Z,100257.41
2023-04-17T06:26:33.597Z,100248.34
2023-04-17T06:27:15.417Z,100247.69
2023-04-17T06:27:57.623Z,100239.59
2023-04-17T06:28:39.293Z,100245.06
2023-04-17T06:29:20.972Z,100247.72
2023-04-17T06:30:04.785Z,100249.16
2023-04-17T06:30:50.238Z,100194.97
2023-04-17T06:31:33.003Z,100249.03
2023-04-17T06:32:14.737Z,100257.31
2023-04-17T06:32:56.380Z,100246.06
2023-04-17T06:33:38.060Z,100234.44
2023-04-17T06:34:19.797Z,100253.00
2023-04-17T06:35:02.399Z,100246.88
2023-04-17T06:35:54.469Z,100229.84
2023-04-17T06:37:00.546Z,100253.66
2023-04-17T06:37:42.330Z,100247.34
2023-04-17T06:38:23.980Z,100255.78
2023-04-17T06:39:06.222Z,100256.28
2023-04-17T06:39:47.855Z,100254.81
2023-04-17T06:40:29.548Z,100242.88
2023-04-17T06:41:11.111Z,100258.06
2023-04-17T06:41:56.102Z,100247.63
2023-04-17T06:42:42.009Z,100245.81
2023-04-17T06:43:27.658Z,100259.38
2023-04-17T06:44:09.458Z,100245.81
2023-04-17T06:45:02.089Z,100255.25
2023-04-17T06:45:45.165Z,100248.84
2023-04-17T06:46:26.870Z,100245.53
2023-04-17T06:47:09.030Z,100253.75
2023-04-17T06:47:52.798Z,100249.47
2023-04-17T06:48:34.496Z,100250.66
2023-04-17T06:49:16.121Z,100252.47
2023-04-17T06:49:59.855Z,100260.44
2023-04-17T06:50:42.228Z,100248.50
2023-04-17T06:51:25.346Z,100258.59
2023-04-17T06:52:06.975Z,100231.94
2023-04-17T06:52:48.599Z,100234.75
2023-04-17T06:53:30.219Z,100258.22
2023-04-17T06:54:12.166Z,100261.53
2023-04-17T06:54:54.470Z,100257.69
2023-04-17T06:55:36.113Z,100241.66
2023-04-17T06:56:18.261Z,100238.69
2023-04-17T06:56:59.923Z,100256.53
2023-04-17T06:57:41.584Z,100261.66
2023-04-17T06:58:23.178Z,100246.44
2023-04-17T06:59:04.836Z,100256.34
2023-04-17T06:59:46.417Z,100255.31
2023-04-17T07:00:28.227Z,100262.09
2023-04-17T07:01:11.444Z,100261.09
2023-04-17T07:01:53.184Z,100253.00
2023-04-17T07:02:34.933Z,100255.63
2023-04-17T07:03:16.782Z,100258.78
2023-04-17T07:03:58.611Z,100209.69
2023-04-17T07:04:40.543Z,100264.13
2023-04-17T07:05:22.276Z,100255.84
2023-04-17T07:06:04.054Z,100245.38
2023-04-17T07:06:45.694Z,100202.06
2023-04-17T07:07:28.006Z,100264.31
2023-04-17T07:08:09.761Z,100240.78
2023-04-17T07:08:52.560Z,100261.06
2023-04-17T07:09:35.168Z,100252.59
2023-04-17T07:10:19.352Z,100224.81
2023-04-17T07:11:01.786Z,100256.63
2023-04-17T07:11:43.419Z,100240.75
2023-04-17T07:12:25.154Z,100242.59
2023-04-17T07:13:06.997Z,100256.63
2023-04-17T07:13:48.644Z,100251.84
2023-04-17T07:14:30.645Z,100254.34
2023-04-17T07:15:12.495Z,100254.00
2023-04-17T07:15:55.483Z,100260.94
2023-04-17T07:16:37.255Z,100256.50
2023-04-17T07:17:19.449Z,100230.69
2023-04-17T07:18:01.157Z,100252.97
2023-04-17T07:18:42.858Z,100253.81
2023-04-17T07:19:24.467Z,100243.41
2023-04-17T07:20:07.697Z,100258.91
2023-04-17T07:20:49.484Z,100256.25
2023-04-17T07:21:32.574Z,100222.16
2023-04-17T07:22:14.356Z,100259.88
2023-04-17T07:22:56.645Z,100221.91
2023-04-17T07:23:38.279Z,100265.75
2023-04-17T07:24:19.934Z,100258.97
2023-04-17T07:25:01.708Z,100261.34
2023-04-17T07:25:43.452Z,100258.88
2023-04-17T07:26:25.631Z,100260.69
2023-04-17T07:27:09.344Z,100249.94
2023-04-17T07:27:51.324Z,100262.78
2023-04-17T07:28:34.133Z,100264.56
2023-04-17T07:29:16.017Z,100266.34
2023-04-17T07:29:57.799Z,100262.63
2023-04-17T07:30:39.432Z,100259.25
2023-04-17T07:31:22.038Z,100265.28
2023-04-17T07:32:04.737Z,100263.09
2023-04-17T07:32:46.643Z,100262.00
2023-04-17T07:33:28.233Z,100255.78
2023-04-17T07:34:09.941Z,100268.06
2023-04-17T07:34:52.011Z,100272.91
2023-04-17T07:35:33.895Z,100271.06
2023-04-17T07:36:16.319Z,100260.38
2023-04-17T07:36:58.339Z,100260.44
2023-04-17T07:37:40.037Z,100221.50
2023-04-17T07:38:21.815Z,100264.47
2023-04-17T07:39:03.801Z,100265.13
2023-04-17T07:39:48.779Z,100266.25
2023-04-17T07:40:32.077Z,100264.59
2023-04-17T07:41:13.851Z,100270.91
2023-04-17T07:41:56.174Z,100273.56
2023-04-17T07:42:37.957Z,100264.41
2023-04-17T07:43:19.575Z,100279.16
2023-04-17T07:44:03.497Z,100274.13
2023-04-17T07:44:46.357Z,100266.97
2023-04-17T07:45:28.588Z,100265.22
2023-04-17T07:46:10.220Z,100274.31
2023-04-17T07:46:51.951Z,100275.78
2023-04-17T07:47:33.734Z,100270.16
2023-04-17T07:48:18.614Z,100266.69
2023-04-17T07:49:00.267Z,100279.34
2023-04-17T07:49:41.941Z,100277.13
2023-04-17T07:50:23.654Z,100273.34
2023-04-17T07:51:05.930Z,100276.66
2023-04-17T07:51:47.532Z,100282.31
2023-04-17T07:52:29.460Z,100278.66
2023-04-17T07:53:11.414Z,100259.69
2023-04-17T07:53:53.191Z,100277.22
2023-04-17T07:54:34.865Z,100282.63
2023-04-17T07:55:16.838Z,100268.81
2023-04-17T07:55:58.754Z,100289.72
2023-04-17T07:56:40.435Z,100245.59
2023-04-17T07:57:22.569Z,100274.72
2023-04-17T07:58:04.287Z,100294.28
2023-04-17T07:58:46.362Z,100295.72
2023-04-17T07:59:28.654Z,100298.16
2023-04-17T08:00:13.618Z,100282.47
2023-04-17T08:00:55.648Z,100259.47
2023-04-17T08:01:37.227Z,100296.00
2023-04-17T08:02:20.685Z,100282.47
2023-04-17T08:03:03.956Z,100301.88
2023-04-17T08:03:49.307Z,100307.16
2023-04-17T08:04:33.267Z,100312.38
2023-04-17T08:05:15.172Z,100304.75
2023-04-17T08:05:57.504Z,100298.44
2023-04-17T08:06:39.173Z,100299.34
2023-04-17T08:07:20.801Z,100278.25
2023-04-17T08:08:02.481Z,100299.06
2023-04-17T08:08:47.553Z,100295.38
2023-04-17T08:09:29.163Z,100297.84
2023-04-17T08:10:10.967Z,100308.44
2023-04-17T08:10:52.593Z,100305.25